Pennside, Pennsylvania
Current Conditions -  °F | °C
As of 12:54 AM on Tuesday 21 Oct 2014 (Local Time) from KRDG Reporting Station
Light Rain Light Rain  
Wind Chill: 55°   Ceiling: 8500
Heat Index: 55°   Visibility: 10mi
Dew Point: 48°   Wind: 3mph
Humidity: 77%   Direction: 130°SE
Pressure: 29.91"   Gusts: NA
Location:  40.3351°N, 75.8521°W
Report Text: KRDG 210454Z AUTO 13003KT 10SM -RA OVC085 13/09 A2991 RMK AO2 RAB46 SLP133 P0000 T01280089 401670017
Loading
Personal Weather Stations






























Interactive Weather Map
Tropical Storm Tracking
New forecast layout! Learn more

10-Day Weather Forecast

Advertisements
Track Severe Weather on mobile